This is the latest recevied weather packets stored in our database for station/object DK6GC-10. If no packets are shown the sender has not sent any weather packets the latest 10 day(s).
| Time | Temp. | Humidity | Pressure | Rain* | Wind** | Luminosity | Snow |
|---|---|---|---|---|---|---|---|
| 1777344496 | 7.22° C | 76% | 1016.8 hPa | - | - | - | - |
| 1777343596 | 7.78° C | 75% | 1016.9 hPa | - | - | - | - |
| 1777342695 | 8.33° C | 74% | 1016.9 hPa | - | - | - | - |
| 1777341795 | 8.89° C | 71% | 1017.1 hPa | - | - | - | - |
| 1777340895 | 8.89° C | 72% | 1017 hPa | - | - | - | - |
| 1777339995 | 8.89° C | 72% | 1017.2 hPa | - | - | - | - |
| 1777339095 | 8.89° C | 70% | 1017.3 hPa | - | - | - | - |
| 1777338194 | 8.89° C | 69% | 1017 hPa | - | - | - | - |
| 1777337294 | 9.44° C | 69% | 1017.2 hPa | - | - | - | - |
| 1777336394 | 10° C | 66% | 1017.3 hPa | - | - | - | - |
| 1777335494 | 10° C | 67% | 1017.4 hPa | - | - | - | - |
| 1777334594 | 10° C | 65% | 1017.5 hPa | - | - | - | - |
| 1777333694 | 10° C | 64% | 1017.7 hPa | - | - | - | - |
| 1777332793 | 10.56° C | 64% | 1017.6 hPa | - | - | - | - |
| 1777331893 | 11.11° C | 59% | 1017.6 hPa | - | - | - | - |
| 1777330993 | 11.11° C | 59% | 1017.6 hPa | - | - | - | - |
| 1777330093 | 12.22° C | 51% | 1017.6 hPa | - | - | - | - |
| 1777329193 | 12.78° C | 50% | 1017.7 hPa | - | - | - | - |
| 1777328292 | 12.78° C | 44% | 1017.9 hPa | - | - | - | - |
| 1777327391 | 13.33° C | 44% | 1017.9 hPa | - | - | - | - |
| 1777326491 | 13.33° C | 42% | 1018 hPa | - | - | - | - |
| 1777325591 | 11.11° C | 54% | 1018.2 hPa | - | - | - | - |
| 1777324703 | 11.67° C | 52% | 1018.2 hPa | - | - | - | - |
| 1777323803 | 12.78° C | 50% | 1018.3 hPa | - | - | - | - |
| 1777322903 | 13.89° C | 42% | 1018.4 hPa | - | - | - | - |
* Rain since midnight (hover to see other rain measurements)
** Current wind speed in m/s (hover to see current wind gust speed)